Time;durP1;ratioP1;P1;durP2;ratioP2;P2;SDS_P1;SDS_P2;PMS_P1;PMS_P2;Temp;Humidity;BMP_temperature;BMP_pressure;BME280_temperature;BME280_humidity;BME280_pressure;Samples;Min_cycle;Max_cycle;Signal;HPM_P1;HPM_P2
2021/05/26 00:00:20;;;;;;;5.93;1.20;;;11.20;99.90;;;;;;5031745;28;20076;-65
2021/05/26 00:03:25;;;;;;;9.35;2.05;;;11.20;99.90;;;;;;5031739;28;20052;-64
2021/05/26 00:06:29;;;;;;;8.40;1.30;;;11.20;99.90;;;;;;5019548;28;20053;-64
2021/05/26 00:09:33;;;;;;;7.72;1.45;;;11.10;99.90;;;;;;5031142;28;20048;-64
2021/05/26 00:12:38;;;;;;;11.85;2.60;;;11.10;99.90;;;;;;5031555;28;20045;-64
2021/05/26 00:15:42;;;;;;;10.80;1.25;;;11.10;99.90;;;;;;5031788;28;20044;-66
2021/05/26 00:18:46;;;;;;;4.97;1.40;;;11.00;99.90;;;;;;5031052;28;20048;-66
2021/05/26 00:21:50;;;;;;;2.33;0.90;;;10.90;99.90;;;;;;5031167;28;20056;-65
2021/05/26 00:24:54;;;;;;;7.90;1.88;;;10.90;99.90;;;;;;5030437;28;20052;-65
2021/05/26 00:27:59;;;;;;;14.60;1.50;;;10.80;99.90;;;;;;5031285;28;20392;-65
2021/05/26 00:31:05;;;;;;;5.93;1.85;;;10.70;99.90;;;;;;5031546;28;20048;-65
2021/05/26 00:34:09;;;;;;;9.07;1.15;;;10.70;99.90;;;;;;5030592;28;20045;-65
2021/05/26 00:37:13;;;;;;;12.05;1.33;;;10.60;99.90;;;;;;5031506;28;20060;-64
2021/05/26 00:40:18;;;;;;;5.57;1.40;;;10.60;99.90;;;;;;5029823;28;20048;-65
2021/05/26 00:43:22;;;;;;;7.43;1.42;;;10.70;99.90;;;;;;5031341;28;20053;-65
2021/05/26 00:46:27;;;;;;;8.43;1.27;;;10.70;99.90;;;;;;5031562;28;20064;-64
2021/05/26 00:49:31;;;;;;;4.72;1.63;;;10.70;99.90;;;;;;5030998;28;20095;-65
2021/05/26 00:52:36;;;;;;;7.10;2.17;;;10.80;99.90;;;;;;5030656;28;20404;-65
2021/05/26 00:55:43;;;;;;;5.43;1.65;;;10.70;99.90;;;;;;5018376;28;20507;-65
2021/05/26 00:58:50;;;;;;;8.90;1.40;;;10.80;99.90;;;;;;5031055;28;20052;-65
2021/05/26 01:01:55;;;;;;;6.88;1.15;;;10.70;99.90;;;;;;5018510;28;20045;-65
2021/05/26 01:05:00;;;;;;;10.23;1.50;;;10.50;99.90;;;;;;5029474;28;20048;-65
2021/05/26 01:08:06;;;;;;;4.28;1.67;;;10.50;99.90;;;;;;5030172;28;20060;-64
2021/05/26 01:11:11;;;;;;;7.53;1.90;;;10.30;99.90;;;;;;5030652;28;20044;-65
2021/05/26 01:14:17;;;;;;;16.15;2.13;;;10.20;99.90;;;;;;5030766;28;20482;-65
2021/05/26 01:17:22;;;;;;;7.60;1.85;;;10.10;99.90;;;;;;5030861;28;20068;-65
2021/05/26 01:20:29;;;;;;;5.00;1.40;;;10.00;99.90;;;;;;5028893;28;20507;-64
2021/05/26 01:23:35;;;;;;;6.40;1.52;;;9.90;99.90;;;;;;5018329;28;20049;-63
2021/05/26 01:26:43;;;;;;;11.52;1.92;;;9.80;99.90;;;;;;5017812;28;20045;-65
2021/05/26 01:29:48;;;;;;;10.40;1.65;;;9.90;99.90;;;;;;5030269;28;20044;-65
2021/05/26 01:32:53;;;;;;;6.65;1.27;;;9.80;99.90;;;;;;5018195;28;20048;-64
2021/05/26 01:36:11;;;;;;;6.05;1.40;;;9.80;99.90;;;;;;5019269;28;20049;-64
2021/05/26 01:39:17;;;;;;;10.40;1.55;;;9.70;99.90;;;;;;5028753;28;20050;-65
2021/05/26 01:42:29;;;;;;;13.15;1.70;;;9.70;99.90;;;;;;5029778;28;20709;-64
2021/05/26 01:45:35;;;;;;;6.88;1.90;;;9.60;99.90;;;;;;5017068;28;20534;-65
2021/05/26 01:48:44;;;;;;;10.77;2.72;;;9.60;99.90;;;;;;5029206;28;20044;-64
2021/05/26 01:51:48;;;;;;;12.25;2.53;;;9.50;99.90;;;;;;5029811;28;20061;-65
2021/05/26 01:54:53;;;;;;;14.35;2.47;;;9.50;99.90;;;;;;5028352;28;20064;-65
2021/05/26 01:57:58;;;;;;;11.25;1.90;;;9.50;99.90;;;;;;5030407;28;20049;-65
2021/05/26 02:01:10;;;;;;;6.90;2.20;;;9.40;99.90;;;;;;5017347;28;20781;-65
2021/05/26 02:04:16;;;;;;;11.80;2.63;;;9.30;99.90;;;;;;5016705;28;20276;-65
2021/05/26 02:07:20;;;;;;;14.63;4.03;;;9.10;99.90;;;;;;5011767;28;20384;-64
2021/05/26 02:13:50;;;;;;;12.10;2.83;;;9.00;99.90;;;;;;5027499;28;20064;-65
2021/05/26 02:16:55;;;;;;;12.15;3.17;;;8.90;99.90;;;;;;5029638;28;20033;-64
2021/05/26 02:20:00;;;;;;;20.98;4.30;;;8.90;99.90;;;;;;5017274;28;20044;-65
2021/05/26 02:23:04;;;;;;;14.07;3.10;;;8.90;99.90;;;;;;5028665;28;20045;-65
2021/05/26 02:26:09;;;;;;;21.17;4.30;;;8.90;99.90;;;;;;5017144;28;20049;-65
2021/05/26 02:29:13;;;;;;;14.10;3.40;;;8.80;99.90;;;;;;5017500;28;20401;-65
2021/05/26 02:32:17;;;;;;;14.27;4.57;;;8.80;99.90;;;;;;5029562;28;20048;-65
2021/05/26 02:35:24;;;;;;;10.95;2.28;;;8.80;99.90;;;;;;5029830;28;20052;-66
2021/05/26 02:38:28;;;;;;;10.88;2.13;;;8.80;99.90;;;;;;5028432;28;20538;-65
2021/05/26 02:41:35;;;;;;;15.65;2.58;;;8.80;99.90;;;;;;5017085;28;20048;-65
2021/05/26 02:44:39;;;;;;;12.75;2.17;;;8.90;99.90;;;;;;5028598;28;20060;-65
2021/05/26 02:47:44;;;;;;;8.82;2.10;;;8.90;99.90;;;;;;5028630;28;20041;-66
2021/05/26 02:50:48;;;;;;;11.02;2.90;;;8.90;99.90;;;;;;5016658;28;20041;-65
2021/05/26 02:53:53;;;;;;;9.18;2.38;;;8.90;99.90;;;;;;5027909;28;20113;-64
2021/05/26 02:57:00;;;;;;;11.45;2.40;;;8.90;99.90;;;;;;5031403;28;20041;-65
2021/05/26 03:00:27;;;;;;;11.20;2.97;;;8.90;99.90;;;;;;5015935;28;20044;-65
2021/05/26 03:03:51;;;;;;;8.57;2.25;;;8.90;99.90;;;;;;5032059;28;20036;-64
2021/05/26 03:07:04;;;;;;;13.77;2.92;;;8.90;99.90;;;;;;5020936;28;20049;-65
2021/05/26 03:10:11;;;;;;;13.50;2.63;;;8.90;99.90;;;;;;5030729;28;20388;-64
2021/05/26 03:13:16;;;;;;;25.90;13.77;;;8.80;99.90;;;;;;5031662;28;20037;-64
2021/05/26 03:16:21;;;;;;;14.00;6.47;;;8.80;99.90;;;;;;5021080;28;20610;-65
2021/05/26 03:19:25;;;;;;;13.70;4.13;;;8.70;99.90;;;;;;5032571;28;20049;-64
2021/05/26 03:22:41;;;;;;;11.18;3.38;;;8.70;99.90;;;;;;5020843;28;20049;-65
2021/05/26 03:26:24;;;;;;;11.93;2.88;;;8.70;99.90;;;;;;4971127;28;20178;-65
2021/05/26 03:29:28;;;;;;;16.08;2.55;;;8.60;99.90;;;;;;4971596;28;20368;-65
2021/05/26 03:32:32;;;;;;;8.85;2.58;;;8.60;99.90;;;;;;5033009;28;20072;-65
2021/05/26 03:35:37;;;;;;;17.23;2.67;;;8.60;99.90;;;;;;5020529;28;20046;-65
2021/05/26 03:38:42;;;;;;;12.32;2.63;;;8.60;99.90;;;;;;5032215;28;20052;-65
2021/05/26 03:41:47;;;;;;;14.55;2.80;;;8.60;99.90;;;;;;5019405;28;20049;-65
2021/05/26 03:44:53;;;;;;;11.20;2.53;;;8.60;99.90;;;;;;5032139;28;20120;-65
2021/05/26 03:47:58;;;;;;;15.23;3.45;;;8.60;99.90;;;;;;5032334;28;20511;-64
2021/05/26 03:51:03;;;;;;;14.32;3.90;;;8.60;99.90;;;;;;5019165;28;20052;-65
2021/05/26 03:54:07;;;;;;;13.48;3.70;;;8.70;99.90;;;;;;5031565;28;20058;-65
2021/05/26 03:57:16;;;;;;;8.20;2.65;;;8.70;99.90;;;;;;5019748;28;20389;-65
2021/05/26 04:00:23;;;;;;;13.35;2.83;;;8.60;99.90;;;;;;5031830;28;20500;-65
2021/05/26 04:03:44;;;;;;;11.48;2.40;;;8.60;99.90;;;;;;5019735;28;20140;-65
2021/05/26 04:06:52;;;;;;;8.98;2.72;;;8.50;99.90;;;;;;5019303;28;20056;-65
2021/05/26 04:09:59;;;;;;;11.48;2.50;;;8.50;99.90;;;;;;5019057;28;20046;-65
2021/05/26 04:13:08;;;;;;;18.10;2.95;;;8.50;99.90;;;;;;5029659;28;20054;-65
2021/05/26 04:16:19;;;;;;;12.02;3.28;;;8.60;99.90;;;;;;5019236;28;20503;-66
2021/05/26 04:19:53;;;;;;;10.43;3.63;;;8.70;99.90;;;;;;5030787;28;20051;-65
2021/05/26 04:22:58;;;;;;;13.27;3.42;;;8.70;99.90;;;;;;5030468;28;20740;-65
2021/05/26 04:26:04;;;;;;;9.10;2.65;;;8.70;99.90;;;;;;5031247;28;20048;-65
2021/05/26 04:29:10;;;;;;;12.77;2.95;;;8.70;99.90;;;;;;5018329;28;20500;-64
2021/05/26 04:32:21;;;;;;;9.05;2.55;;;8.80;99.90;;;;;;5028843;28;20307;-64
2021/05/26 04:35:25;;;;;;;19.52;2.97;;;10.20;99.90;;;;;;5031025;28;20030;-65
2021/05/26 04:38:31;;;;;;;4.95;2.15;;;13.10;99.90;;;;;;5030857;28;20051;-65
2021/05/26 04:41:37;;;;;;;10.80;2.47;;;15.50;99.90;;;;;;5028480;28;20041;-65
2021/05/26 04:44:41;;;;;;;12.77;2.22;;;16.90;99.90;;;;;;5022481;28;20523;-65
2021/05/26 04:47:45;;;;;;;10.32;2.45;;;17.80;99.90;;;;;;5028804;28;20053;-65
2021/05/26 04:50:50;;;;;;;8.60;2.05;;;18.80;99.90;;;;;;5030478;28;20057;-66
2021/05/26 04:53:55;;;;;;;8.15;2.15;;;19.70;99.90;;;;;;5017602;28;20048;-66
2021/05/26 04:57:00;;;;;;;9.60;1.65;;;19.40;99.90;;;;;;5036364;28;20044;-65
2021/05/26 05:00:07;;;;;;;7.20;2.03;;;20.20;99.90;;;;;;5031682;28;20040;-66
2021/05/26 05:03:11;;;;;;;7.25;1.95;;;20.50;99.30;;;;;;5016629;28;20052;-66
2021/05/26 05:06:16;;;;;;;8.75;2.03;;;20.40;99.90;;;;;;5018174;28;20036;-65
2021/05/26 05:09:20;;;;;;;5.95;1.80;;;20.70;99.90;;;;;;5028770;28;20044;-66
2021/05/26 05:12:23;;;;;;;9.85;2.03;;;21.50;98.90;;;;;;5029943;28;20058;-66
2021/05/26 05:15:28;;;;;;;6.05;1.92;;;21.80;98.20;;;;;;5029684;28;20646;-65
2021/05/26 05:18:33;;;;;;;7.00;2.40;;;22.20;97.20;;;;;;5027923;28;20045;-66
2021/05/26 05:21:37;;;;;;;8.80;2.30;;;21.90;96.40;;;;;;5029266;28;20499;-66
2021/05/26 05:24:41;;;;;;;6.05;1.70;;;22.60;95.90;;;;;;5027591;28;20052;-66
2021/05/26 05:27:45;;;;;;;7.75;1.85;;;23.30;95.00;;;;;;5030583;28;20503;-66
2021/05/26 05:30:49;;;;;;;7.57;1.75;;;23.60;94.60;;;;;;5029467;28;20040;-66
2021/05/26 05:33:53;;;;;;;8.82;2.25;;;23.70;94.00;;;;;;5030206;28;20052;-66
2021/05/26 05:36:57;;;;;;;8.48;1.80;;;23.40;93.30;;;;;;5029810;28;20044;-66
2021/05/26 05:40:01;;;;;;;7.10;2.65;;;22.70;93.90;;;;;;5033655;28;20044;-66
2021/05/26 05:43:06;;;;;;;9.15;2.58;;;19.80;95.80;;;;;;5039528;28;20523;-66
2021/05/26 05:46:10;;;;;;;8.00;2.05;;;18.10;98.40;;;;;;5029570;28;20044;-65
2021/05/26 05:49:15;;;;;;;9.48;2.05;;;16.20;99.90;;;;;;5011074;28;20041;-65
2021/05/26 05:52:19;;;;;;;7.45;2.17;;;16.90;99.90;;;;;;5010051;28;20044;-65
2021/05/26 05:55:24;;;;;;;9.02;2.15;;;18.70;99.90;;;;;;5025236;28;20041;-66
2021/05/26 05:58:28;;;;;;;10.20;2.42;;;20.80;98.60;;;;;;5029085;28;20049;-66
2021/05/26 06:01:33;;;;;;;6.20;1.70;;;22.40;96.30;;;;;;5027640;28;20511;-66
2021/05/26 06:04:37;;;;;;;13.35;2.28;;;22.50;95.30;;;;;;4994795;28;20057;-66
2021/05/26 06:07:42;;;;;;;8.15;1.70;;;22.30;95.50;;;;;;4994711;28;21260;-66
2021/05/26 06:10:46;;;;;;;10.68;2.10;;;23.30;94.70;;;;;;5004523;28;20049;-66
2021/05/26 06:13:50;;;;;;;10.52;1.77;;;24.10;93.20;;;;;;5011826;28;20052;-67
2021/05/26 06:16:55;;;;;;;7.13;2.10;;;24.30;92.90;;;;;;5009660;28;20049;-66
2021/05/26 06:20:00;;;;;;;10.13;2.42;;;24.50;92.50;;;;;;5009232;28;20415;-67
2021/05/26 06:23:06;;;;;;;8.52;1.90;;;24.70;92.30;;;;;;5005077;28;20380;-66
2021/05/26 06:26:10;;;;;;;5.57;2.28;;;24.70;91.90;;;;;;4988702;28;20049;-66
2021/05/26 06:29:16;;;;;;;8.20;2.33;;;25.10;92.00;;;;;;5011378;28;20041;-66
2021/05/26 06:32:21;;;;;;;6.78;1.63;;;23.20;92.20;;;;;;5003218;28;20385;-66
2021/05/26 06:35:26;;;;;;;9.65;2.05;;;22.90;93.40;;;;;;5015533;28;20044;-66
2021/05/26 06:38:31;;;;;;;8.02;2.13;;;22.50;93.70;;;;;;5014471;28;20178;-66
2021/05/26 06:41:36;;;;;;;8.60;2.20;;;21.10;94.60;;;;;;5017754;28;20048;-66
2021/05/26 06:44:40;;;;;;;7.47;2.20;;;21.70;94.40;;;;;;5002493;28;20060;-65
2021/05/26 06:47:45;;;;;;;5.15;1.77;;;22.10;93.70;;;;;;5015640;28;20045;-66
2021/05/26 06:50:50;;;;;;;8.35;2.58;;;21.80;94.20;;;;;;5016226;28;20044;-66
2021/05/26 06:53:56;;;;;;;9.13;2.17;;;21.20;95.10;;;;;;5010617;28;20060;-66
2021/05/26 06:57:00;;;;;;;8.93;2.20;;;21.40;95.80;;;;;;5017387;28;20045;-66
2021/05/26 07:00:07;;;;;;;8.85;2.13;;;23.10;94.00;;;;;;5016793;28;20129;-66
2021/05/26 07:03:13;;;;;;;7.20;2.13;;;21.10;94.50;;;;;;5003145;28;20052;-66
2021/05/26 07:06:17;;;;;;;6.93;2.10;;;21.90;95.10;;;;;;5020461;28;20045;-66
2021/05/26 07:09:22;;;;;;;13.43;2.20;;;22.10;94.50;;;;;;5016692;28;20044;-66
2021/05/26 07:12:26;;;;;;;7.80;2.28;;;21.40;95.30;;;;;;5012005;28;20061;-65
2021/05/26 07:15:30;;;;;;;7.82;2.38;;;22.30;94.80;;;;;;5018778;28;20048;-66
2021/05/26 07:18:35;;;;;;;7.57;2.17;;;22.50;94.80;;;;;;5027220;28;20601;-65
2021/05/26 07:21:40;;;;;;;8.75;2.08;;;23.90;93.20;;;;;;5015618;28;20060;-66
2021/05/26 07:24:44;;;;;;;12.90;2.30;;;24.70;92.80;;;;;;5014292;28;20053;-66
2021/05/26 07:27:50;;;;;;;13.60;2.47;;;23.70;92.70;;;;;;4994711;28;20056;-66
2021/05/26 07:30:54;;;;;;;10.18;2.03;;;22.60;94.50;;;;;;5012715;28;20064;-66
2021/05/26 07:33:59;;;;;;;9.80;2.30;;;23.50;93.80;;;;;;5013784;28;20333;-65
2021/05/26 07:37:04;;;;;;;12.75;2.67;;;24.40;92.80;;;;;;5016599;28;20052;-65
2021/05/26 07:40:11;;;;;;;11.00;2.20;;;22.80;92.80;;;;;;5014445;28;20137;-65
2021/05/26 07:43:14;;;;;;;8.60;2.35;;;21.60;94.90;;;;;;5010426;28;20929;-65
2021/05/26 07:46:19;;;;;;;16.08;2.83;;;23.00;94.30;;;;;;5000731;28;20040;-65
2021/05/26 07:49:23;;;;;;;10.68;2.25;;;24.30;93.40;;;;;;5026144;28;20528;-65
2021/05/26 07:52:30;;;;;;;11.95;2.33;;;25.70;91.60;;;;;;5012779;28;20053;-65
2021/05/26 07:55:34;;;;;;;7.88;2.50;;;27.50;90.20;;;;;;5011150;28;20045;-64
2021/05/26 07:58:38;;;;;;;10.77;2.20;;;29.30;88.10;;;;;;5029424;28;20511;-66
2021/05/26 08:01:42;;;;;;;7.10;2.10;;;30.50;84.40;;;;;;5031794;28;20040;-65
2021/05/26 08:04:48;;;;;;;9.25;2.13;;;30.70;82.60;;;;;;5031774;28;20077;-65
2021/05/26 08:07:52;;;;;;;9.50;2.03;;;30.70;80.80;;;;;;5032132;28;20045;-65
2021/05/26 08:10:57;;;;;;;9.25;2.53;;;30.60;81.00;;;;;;5030736;28;20040;-65
2021/05/26 08:14:03;;;;;;;7.97;1.98;;;30.60;81.20;;;;;;5031949;28;20044;-66
2021/05/26 08:17:07;;;;;;;9.77;2.45;;;29.30;81.10;;;;;;5042791;28;20048;-66
2021/05/26 08:20:13;;;;;;;5.88;2.13;;;30.60;81.60;;;;;;5025903;28;20064;-64
2021/05/26 08:23:17;;;;;;;10.70;2.28;;;28.50;81.30;;;;;;5030117;28;20056;-65
2021/05/26 08:26:22;;;;;;;10.18;2.33;;;30.30;81.20;;;;;;5029389;28;20053;-65
2021/05/26 08:29:32;;;;;;;8.13;2.28;;;31.80;78.70;;;;;;5020930;28;20044;-65
2021/05/26 08:32:37;;;;;;;5.88;1.67;;;31.20;77.20;;;;;;5031112;28;20037;-65
2021/05/26 08:35:41;;;;;;;6.28;1.63;;;30.70;77.60;;;;;;5031523;28;20530;-66
2021/05/26 08:38:45;;;;;;;6.72;1.67;;;32.40;73.20;;;;;;5011391;28;20125;-66
2021/05/26 08:41:53;;;;;;;10.77;2.53;;;33.50;71.30;;;;;;5011020;28;20495;-65
2021/05/26 08:44:57;;;;;;;6.70;2.08;;;34.50;69.20;;;;;;5029049;28;20392;-65
2021/05/26 08:48:05;;;;;;;7.20;2.20;;;35.30;68.20;;;;;;5027884;28;20049;-66
2021/05/26 08:51:14;;;;;;;5.68;1.75;;;36.20;66.50;;;;;;5024740;28;20044;-66
2021/05/26 08:54:18;;;;;;;9.20;1.70;;;35.10;65.70;;;;;;5028287;28;20404;-66
2021/05/26 08:57:23;;;;;;;7.47;1.90;;;35.70;65.20;;;;;;5029994;28;20048;-65
2021/05/26 09:00:30;;;;;;;7.30;2.00;;;36.30;64.90;;;;;;5011235;28;20049;-67
2021/05/26 09:03:35;;;;;;;5.13;1.75;;;36.50;65.90;;;;;;5028760;28;20056;-66
2021/05/26 09:06:48;;;;;;;9.85;1.92;;;37.00;66.50;;;;;;5029704;28;20044;-65
2021/05/26 09:10:03;;;;;;;11.10;2.42;;;37.90;63.30;;;;;;5010431;28;20499;-67
2021/05/26 09:13:26;;;;;;;9.07;1.75;;;38.20;62.60;;;;;;5020617;28;20040;-65
2021/05/26 09:16:33;;;;;;;9.13;1.92;;;38.60;61.10;;;;;;5030118;28;20061;-67
2021/05/26 09:19:38;;;;;;;7.70;1.63;;;38.90;60.90;;;;;;5029920;28;20527;-67
2021/05/26 09:23:07;;;;;;;4.88;1.65;;;39.40;60.10;;;;;;5027642;28;20604;-66
2021/05/26 09:26:12;;;;;;;6.00;1.83;;;38.20;58.00;;;;;;5021375;28;20044;-67
2021/05/26 09:29:16;;;;;;;5.55;1.77;;;36.90;59.70;;;;;;5027121;28;20041;-66
2021/05/26 09:32:23;;;;;;;8.27;1.77;;;38.00;60.20;;;;;;5029129;28;20044;-66
2021/05/26 09:35:27;;;;;;;7.93;1.65;;;38.90;57.90;;;;;;5029214;28;20060;-66
2021/05/26 09:38:46;;;;;;;5.70;1.50;;;39.00;56.20;;;;;;5026873;28;20049;-65
2021/05/26 09:41:51;;;;;;;6.97;1.95;;;39.50;55.40;;;;;;5028406;28;20044;-66
2021/05/26 09:45:04;;;;;;;7.05;1.65;;;39.80;55.70;;;;;;5029939;28;20052;-66
2021/05/26 09:48:13;;;;;;;4.18;1.50;;;39.50;54.10;;;;;;5030155;28;20041;-66
2021/05/26 09:51:31;;;;;;;12.00;2.35;;;39.50;53.20;;;;;;5017319;28;20040;-66
2021/05/26 09:54:36;;;;;;;4.72;1.20;;;40.20;53.40;;;;;;5029251;28;20045;-66
2021/05/26 09:57:40;;;;;;;6.82;1.60;;;40.00;50.30;;;;;;5029949;28;20052;-66
2021/05/26 10:00:46;;;;;;;6.10;1.80;;;38.10;50.70;;;;;;5029620;28;20064;-65
2021/05/26 10:03:49;;;;;;;8.70;1.85;;;39.30;51.50;;;;;;5029729;28;20056;-65
2021/05/26 10:06:54;;;;;;;5.28;1.55;;;38.10;52.70;;;;;;5020198;28;20052;-65
2021/05/26 10:10:15;;;;;;;8.48;1.95;;;38.20;52.80;;;;;;5031597;28;20044;-65
2021/05/26 10:13:26;;;;;;;5.40;1.35;;;39.00;54.40;;;;;;5021049;28;20160;-67
2021/05/26 10:16:33;;;;;;;6.05;1.67;;;40.20;53.90;;;;;;5021098;28;20139;-66
2021/05/26 10:19:38;;;;;;;7.70;1.73;;;41.10;53.20;;;;;;5017079;28;20041;-67
2021/05/26 10:22:43;;;;;;;8.32;1.98;;;38.30;52.80;;;;;;5017789;28;20055;-65
2021/05/26 10:25:48;;;;;;;5.85;1.85;;;31.40;55.20;;;;;;5028873;28;20404;-67
2021/05/26 10:28:52;;;;;;;6.15;1.58;;;31.80;59.60;;;;;;5033710;28;20049;-65
2021/05/26 10:32:01;;;;;;;7.25;1.73;;;35.00;55.10;;;;;;5033069;28;20040;-66
2021/05/26 10:35:06;;;;;;;4.63;1.77;;;36.60;54.20;;;;;;5033322;28;20496;-65
2021/05/26 10:38:11;;;;;;;4.10;1.67;;;37.00;54.00;;;;;;5032544;28;20045;-65
2021/05/26 10:41:15;;;;;;;7.05;1.85;;;38.60;52.30;;;;;;5020203;28;20396;-66
2021/05/26 10:44:20;;;;;;;4.15;1.50;;;38.20;52.20;;;;;;5032057;28;20056;-68
2021/05/26 10:47:39;;;;;;;7.07;1.40;;;38.30;54.30;;;;;;5032736;28;20409;-67
2021/05/26 10:50:55;;;;;;;6.53;1.85;;;38.80;53.30;;;;;;5032967;28;20053;-65
2021/05/26 10:53:59;;;;;;;4.00;1.50;;;39.20;52.50;;;;;;5032075;28;20040;-65
2021/05/26 10:57:03;;;;;;;6.57;1.80;;;39.60;50.50;;;;;;5032706;28;20044;-66
2021/05/26 11:00:22;;;;;;;6.50;2.03;;;37.70;51.90;;;;;;5032686;28;20048;-66
2021/05/26 11:03:27;;;;;;;4.22;1.65;;;37.50;51.50;;;;;;5026726;28;20048;-66
2021/05/26 11:06:35;;;;;;;7.90;1.83;;;36.30;51.30;;;;;;5030012;28;20052;-66
2021/05/26 11:10:01;;;;;;;6.32;2.25;;;37.30;51.50;;;;;;5032077;28;20056;-67
2021/05/26 11:13:05;;;;;;;8.43;1.80;;;36.60;51.60;;;;;;5013269;28;20045;-66
2021/05/26 11:16:10;;;;;;;5.38;1.85;;;37.10;53.40;;;;;;5030918;28;20047;-67
2021/05/26 11:19:20;;;;;;;6.57;2.10;;;37.30;53.40;;;;;;5017604;28;20048;-65
2021/05/26 11:22:24;;;;;;;6.00;1.77;;;36.60;53.50;;;;;;5002867;28;20052;-67
2021/05/26 11:25:30;;;;;;;5.10;1.60;;;37.10;51.10;;;;;;5022050;28;20079;-66
2021/05/26 11:28:37;;;;;;;8.02;1.90;;;37.50;50.70;;;;;;5023665;28;20048;-66
2021/05/26 11:31:42;;;;;;;6.30;1.70;;;30.50;55.20;;;;;;5026666;28;20049;-67
2021/05/26 11:34:48;;;;;;;6.88;2.25;;;29.80;55.40;;;;;;5031518;28;20056;-67
2021/05/26 11:37:52;;;;;;;8.60;1.85;;;30.80;58.10;;;;;;5031705;28;20503;-67
2021/05/26 11:40:58;;;;;;;4.50;1.52;;;32.30;56.10;;;;;;5031178;28;20036;-67
2021/05/26 11:44:03;;;;;;;6.65;1.77;;;34.10;56.60;;;;;;5029757;28;20045;-66
2021/05/26 11:47:08;;;;;;;8.05;1.70;;;35.30;54.50;;;;;;5026819;28;20046;-66
2021/05/26 11:50:15;;;;;;;7.28;2.20;;;35.50;53.90;;;;;;5031284;28;20499;-67
2021/05/26 11:53:20;;;;;;;9.07;1.75;;;35.30;53.30;;;;;;5021241;28;20037;-67
2021/05/26 11:56:24;;;;;;;8.30;1.60;;;34.40;53.80;;;;;;5031426;28;20045;-67
2021/05/26 11:59:29;;;;;;;4.68;1.45;;;29.30;54.80;;;;;;5031357;28;20511;-67
2021/05/26 12:02:33;;;;;;;5.00;1.60;;;30.20;57.00;;;;;;5028751;28;20048;-67
2021/05/26 12:05:47;;;;;;;3.80;1.20;;;30.30;56.30;;;;;;5026097;28;20044;-66
2021/05/26 12:08:53;;;;;;;4.25;1.40;;;30.40;54.10;;;;;;5027531;28;20044;-67
2021/05/26 12:11:57;;;;;;;4.03;1.30;;;30.60;55.70;;;;;;5025217;28;20572;-66
2021/05/26 12:15:01;;;;;;;3.90;1.08;;;31.30;54.40;;;;;;5023193;28;20040;-65
2021/05/26 12:18:07;;;;;;;4.40;1.33;;;31.20;55.50;;;;;;5028512;28;20076;-67
2021/05/26 12:21:11;;;;;;;3.17;1.50;;;31.30;54.70;;;;;;5029400;28;20044;-66
2021/05/26 12:24:18;;;;;;;5.47;1.15;;;31.60;54.20;;;;;;5018399;28;20515;-67
2021/05/26 12:27:44;;;;;;;4.38;1.13;;;31.60;54.80;;;;;;5022060;28;20037;-66
2021/05/26 12:30:50;;;;;;;4.13;1.45;;;31.60;53.10;;;;;;5023633;28;20052;-67
2021/05/26 12:33:55;;;;;;;4.72;1.25;;;31.60;54.10;;;;;;5027531;28;20381;-67
2021/05/26 12:37:01;;;;;;;8.20;1.38;;;31.30;52.30;;;;;;5029881;28;20045;-66
2021/05/26 12:40:07;;;;;;;4.82;1.38;;;31.40;52.70;;;;;;5017454;28;20061;-67
2021/05/26 12:43:32;;;;;;;3.00;1.17;;;31.90;53.20;;;;;;5016057;28;20040;-67
2021/05/26 12:46:43;;;;;;;3.25;0.98;;;32.00;54.00;;;;;;5011021;28;20052;-67
2021/05/26 12:49:48;;;;;;;5.28;1.20;;;32.00;53.40;;;;;;5014750;28;20040;-66
2021/05/26 12:52:53;;;;;;;5.18;1.30;;;30.30;54.50;;;;;;5028270;28;20049;-68
2021/05/26 12:55:58;;;;;;;4.10;1.40;;;29.50;53.80;;;;;;5030067;28;20037;-66
2021/05/26 12:59:02;;;;;;;4.97;1.35;;;29.20;55.40;;;;;;5030617;28;20080;-66
2021/05/26 13:02:11;;;;;;;3.92;1.30;;;29.60;55.30;;;;;;5029148;28;20036;-68
2021/05/26 13:05:37;;;;;;;2.58;0.80;;;30.10;55.00;;;;;;4998716;28;20045;-66
2021/05/26 13:09:04;;;;;;;5.25;1.85;;;30.30;53.70;;;;;;5009954;28;20049;-67
2021/05/26 13:12:08;;;;;;;4.05;1.00;;;27.70;53.40;;;;;;5010763;28;20068;-67
2021/05/26 13:15:26;;;;;;;6.03;1.40;;;27.60;55.60;;;;;;5010629;28;20040;-67
2021/05/26 13:18:31;;;;;;;3.90;1.20;;;28.20;56.10;;;;;;5010847;28;20049;-66
2021/05/26 13:21:47;;;;;;;6.88;1.35;;;27.40;56.70;;;;;;5010874;28;20152;-67
2021/05/26 13:24:51;;;;;;;7.43;1.30;;;27.50;59.60;;;;;;5009944;28;20405;-67
2021/05/26 13:27:56;;;;;;;6.32;1.35;;;28.20;60.40;;;;;;5011279;28;20045;-67
2021/05/26 13:31:00;;;;;;;3.75;1.30;;;28.10;59.50;;;;;;5010449;28;20053;-67
2021/05/26 13:34:04;;;;;;;4.38;1.73;;;28.20;60.10;;;;;;5010949;28;20397;-68
2021/05/26 13:37:10;;;;;;;13.85;2.22;;;27.60;59.90;;;;;;5010333;28;20583;-67
2021/05/26 13:40:15;;;;;;;5.03;1.50;;;26.80;63.40;;;;;;5011283;28;20496;-65
2021/05/26 13:43:23;;;;;;;11.52;2.28;;;26.70;62.50;;;;;;5030349;28;20395;-66
2021/05/26 13:46:28;;;;;;;3.92;1.17;;;26.70;63.20;;;;;;5029998;28;20259;-65
2021/05/26 13:49:32;;;;;;;7.05;1.58;;;26.80;63.60;;;;;;5029991;28;20052;-67
2021/05/26 13:52:37;;;;;;;5.00;1.30;;;27.00;63.20;;;;;;5029416;28;20048;-68
2021/05/26 13:55:42;;;;;;;5.53;1.40;;;27.20;63.40;;;;;;5029563;28;20056;-66
2021/05/26 13:58:47;;;;;;;5.78;1.70;;;27.60;63.10;;;;;;5030261;28;20404;-66
2021/05/26 14:01:51;;;;;;;6.90;1.23;;;27.60;63.40;;;;;;5029199;28;20531;-66
2021/05/26 14:04:55;;;;;;;7.10;1.75;;;27.80;62.40;;;;;;5029564;28;20424;-66
2021/05/26 14:08:00;;;;;;;5.68;1.20;;;27.80;62.30;;;;;;5029489;28;20044;-67
2021/05/26 14:11:04;;;;;;;6.22;1.45;;;27.70;64.80;;;;;;5029192;28;20040;-66
2021/05/26 14:14:09;;;;;;;7.30;1.60;;;25.70;65.90;;;;;;5028957;28;20048;-67
2021/05/26 14:17:14;;;;;;;3.78;1.48;;;26.00;66.30;;;;;;5029738;28;20068;-67
2021/05/26 14:20:18;;;;;;;5.82;1.35;;;26.20;66.10;;;;;;5029305;28;20056;-67
2021/05/26 14:23:23;;;;;;;10.52;1.77;;;26.10;65.70;;;;;;5029053;28;20052;-67
2021/05/26 14:26:27;;;;;;;5.68;2.03;;;26.20;63.70;;;;;;5029486;28;20100;-69
2021/05/26 14:29:31;;;;;;;6.20;1.58;;;26.30;65.10;;;;;;5029195;28;20044;-69
2021/05/26 14:32:36;;;;;;;7.53;1.33;;;26.40;65.50;;;;;;5029543;28;20045;-67
2021/05/26 14:35:40;;;;;;;6.57;1.70;;;26.40;65.00;;;;;;5029503;28;20510;-67
2021/05/26 14:39:12;;;;;;;6.57;1.60;;;26.40;65.10;;;;;;5028450;28;20048;-68
2021/05/26 14:42:09;;;;;;;7.25;1.67;;;26.30;65.70;;;;;;5028973;28;20064;-68
2021/05/26 14:45:16;;;;;;;6.57;1.52;;;26.10;66.50;;;;;;5029455;28;20060;-67
2021/05/26 14:48:22;;;;;;;9.93;1.77;;;26.00;65.80;;;;;;5029373;28;20048;-66
2021/05/26 14:51:26;;;;;;;4.05;1.60;;;25.80;65.30;;;;;;5028518;28;20045;-67
2021/05/26 14:54:32;;;;;;;4.20;1.15;;;25.70;65.60;;;;;;5032185;28;20048;-68
2021/05/26 14:57:36;;;;;;;9.52;1.63;;;25.80;67.60;;;;;;5033352;28;20044;-67
2021/05/26 15:00:41;;;;;;;5.53;1.70;;;25.40;67.50;;;;;;5032036;28;20052;-67
2021/05/26 15:03:45;;;;;;;6.32;1.40;;;25.30;67.50;;;;;;5033180;28;20053;-66
2021/05/26 15:06:50;;;;;;;7.75;1.42;;;25.20;68.00;;;;;;5032827;28;20056;-67
2021/05/26 15:09:54;;;;;;;5.57;1.25;;;25.40;67.70;;;;;;5031414;28;20048;-67
2021/05/26 15:12:58;;;;;;;6.43;1.58;;;25.40;68.60;;;;;;5032845;28;20044;-67
2021/05/26 15:16:03;;;;;;;8.15;1.52;;;25.40;68.90;;;;;;5032778;28;20045;-67
2021/05/26 15:19:08;;;;;;;5.28;1.67;;;24.30;70.70;;;;;;5020086;28;20050;-67
2021/05/26 15:22:12;;;;;;;9.45;1.65;;;24.60;71.40;;;;;;5032175;28;20049;-67
2021/05/26 15:25:16;;;;;;;4.20;1.50;;;24.60;69.10;;;;;;5030914;28;20037;-66
2021/05/26 15:28:22;;;;;;;5.05;1.67;;;24.60;69.90;;;;;;5032341;28;20048;-67
2021/05/26 15:31:26;;;;;;;7.78;1.60;;;24.70;68.60;;;;;;5031412;28;20044;-67
2021/05/26 15:34:36;;;;;;;5.53;1.42;;;24.80;70.10;;;;;;5032499;28;20527;-68
2021/05/26 15:37:39;;;;;;;5.60;1.60;;;24.80;68.10;;;;;;5032249;28;20056;-68
2021/05/26 15:40:45;;;;;;;5.93;1.50;;;24.80;69.70;;;;;;5030568;28;20040;-68
2021/05/26 15:43:50;;;;;;;4.82;1.30;;;24.50;69.40;;;;;;5032370;28;20060;-68
2021/05/26 15:46:54;;;;;;;7.82;1.63;;;24.30;71.00;;;;;;5031965;28;20156;-68
2021/05/26 15:49:58;;;;;;;5.70;1.38;;;24.40;70.80;;;;;;5031719;28;20045;-68
2021/05/26 15:53:02;;;;;;;9.25;1.88;;;24.20;70.10;;;;;;5032012;28;20136;-68
2021/05/26 15:56:07;;;;;;;7.47;1.90;;;24.20;72.10;;;;;;5031878;28;20053;-67
2021/05/26 15:59:11;;;;;;;6.03;1.67;;;24.10;69.80;;;;;;5031936;28;20033;-67
2021/05/26 16:02:15;;;;;;;7.35;1.83;;;24.00;71.30;;;;;;5030814;28;20041;-67
2021/05/26 16:05:22;;;;;;;6.03;1.90;;;23.90;71.20;;;;;;5031433;28;20056;-67
2021/05/26 16:08:26;;;;;;;7.32;2.33;;;23.80;72.00;;;;;;5031140;28;20595;-69
2021/05/26 16:11:30;;;;;;;4.57;1.15;;;23.80;73.20;;;;;;5031300;28;20097;-68